Time;durP1;ratioP1;P1;durP2;ratioP2;P2;SDS_P1;SDS_P2;PMS_P1;PMS_P2;Temp;Humidity;BMP_temperature;BMP_pressure;BME280_temperature;BME280_humidity;BME280_pressure;Samples;Min_cycle;Max_cycle;Signal;HPM_P1;HPM_P2
2023/02/03 00:00:04;;;;;;;5.90;3.50;;;3.90;99.90;;;;;;5035947;28;20022;-59
2023/02/03 00:02:49;;;;;;;5.57;3.08;;;3.90;99.90;;;;;;5036585;28;20422;-59
2023/02/03 00:05:36;;;;;;;6.13;3.35;;;3.90;99.90;;;;;;5018687;28;20702;-50
2023/02/03 00:08:22;;;;;;;6.40;3.42;;;3.90;99.90;;;;;;5036986;28;20033;-56
2023/02/03 00:11:08;;;;;;;5.82;3.22;;;3.90;99.90;;;;;;5037026;28;20614;-59
2023/02/03 00:13:54;;;;;;;7.70;3.35;;;4.00;99.90;;;;;;5027841;28;20033;-58
2023/02/03 00:16:40;;;;;;;5.18;3.92;;;3.90;99.90;;;;;;5042642;28;20144;-54
2023/02/03 00:19:26;;;;;;;6.93;3.25;;;4.00;99.90;;;;;;5031116;28;20121;-58
2023/02/03 00:22:12;;;;;;;4.85;3.50;;;4.00;99.90;;;;;;5040522;28;20048;-58
2023/02/03 00:24:59;;;;;;;6.28;3.70;;;3.90;99.90;;;;;;5036834;28;20047;-57
2023/02/03 00:27:45;;;;;;;6.93;4.82;;;3.90;99.90;;;;;;5025082;28;20026;-63
2023/02/03 00:30:33;;;;;;;7.22;5.35;;;3.90;99.90;;;;;;5034565;28;20029;-60
2023/02/03 00:33:19;;;;;;;9.27;6.10;;;3.90;99.90;;;;;;5035486;28;20076;-59
2023/02/03 00:36:06;;;;;;;10.10;7.38;;;3.90;99.90;;;;;;5038293;28;20035;-59
2023/02/03 00:38:53;;;;;;;10.45;8.02;;;3.90;99.90;;;;;;5024225;28;20037;-59
2023/02/03 00:41:38;;;;;;;9.00;7.18;;;4.00;99.90;;;;;;5040588;28;20029;-56
2023/02/03 00:44:24;;;;;;;9.35;6.82;;;4.00;99.90;;;;;;5040240;28;20061;-56
2023/02/03 00:47:10;;;;;;;9.00;6.68;;;4.00;99.90;;;;;;5037714;28;20037;-58
2023/02/03 00:49:56;;;;;;;12.48;6.88;;;4.00;99.90;;;;;;5038398;28;20025;-58
2023/02/03 00:52:42;;;;;;;8.25;6.28;;;4.00;99.90;;;;;;5022749;28;20041;-58
2023/02/03 00:55:28;;;;;;;7.88;5.72;;;3.90;99.90;;;;;;5035452;28;20036;-55
2023/02/03 00:58:14;;;;;;;8.77;5.60;;;4.00;99.90;;;;;;5019484;28;20040;-56
2023/02/03 01:01:00;;;;;;;8.50;6.03;;;3.90;99.90;;;;;;5037280;28;20021;-54
2023/02/03 01:03:46;;;;;;;7.05;5.30;;;4.00;99.90;;;;;;5017483;28;20116;-60
2023/02/03 01:06:32;;;;;;;7.70;5.07;;;4.10;99.90;;;;;;5003608;28;20038;-59
2023/02/03 01:09:18;;;;;;;10.30;5.20;;;4.10;99.90;;;;;;5024027;28;20097;-59
2023/02/03 01:12:04;;;;;;;6.05;4.70;;;4.10;99.90;;;;;;5030218;28;20041;-58
2023/02/03 01:14:53;;;;;;;5.63;4.30;;;4.10;99.90;;;;;;5046322;28;20022;-58
2023/02/03 01:17:39;;;;;;;6.93;4.60;;;4.00;99.90;;;;;;5018184;28;20033;-57
2023/02/03 01:20:24;;;;;;;5.57;4.78;;;4.00;99.90;;;;;;5042287;28;20095;-55
2023/02/03 01:23:10;;;;;;;6.13;4.68;;;4.00;99.90;;;;;;5022144;28;20053;-55
2023/02/03 01:26:01;;;;;;;5.82;4.70;;;4.00;99.90;;;;;;5015657;28;20030;-59
2023/02/03 01:28:58;;;;;;;5.72;4.53;;;4.10;99.90;;;;;;5025541;28;20017;-54
2023/02/03 01:31:44;;;;;;;7.50;5.07;;;4.00;99.90;;;;;;5038805;28;20510;-53
2023/02/03 01:34:30;;;;;;;6.72;5.05;;;4.10;99.90;;;;;;5018151;28;20032;-57
2023/02/03 01:37:16;;;;;;;5.63;4.90;;;4.10;99.90;;;;;;5036991;28;20075;-57
2023/02/03 01:40:03;;;;;;;6.00;4.82;;;4.10;99.90;;;;;;5030106;28;20033;-56
2023/02/03 01:42:49;;;;;;;6.68;5.45;;;4.00;99.90;;;;;;5024664;28;20038;-55
2023/02/03 01:45:34;;;;;;;6.97;5.53;;;4.10;99.90;;;;;;5039499;28;20021;-52
2023/02/03 01:48:20;;;;;;;9.35;5.93;;;4.00;99.90;;;;;;5013146;28;20108;-53
2023/02/03 01:51:06;;;;;;;8.50;5.60;;;4.00;99.90;;;;;;5026347;28;20033;-52
2023/02/03 01:53:53;;;;;;;6.47;5.30;;;4.00;99.90;;;;;;5033103;28;20086;-52
2023/02/03 01:56:44;;;;;;;9.45;6.13;;;4.00;99.90;;;;;;5032066;28;20120;-55
2023/02/03 01:59:33;;;;;;;8.32;6.60;;;4.00;99.90;;;;;;5036485;28;20083;-49
2023/02/03 02:02:19;;;;;;;9.18;6.30;;;4.10;99.90;;;;;;5033868;28;20033;-49
2023/02/03 02:05:16;;;;;;;8.02;6.65;;;4.10;99.90;;;;;;5031959;28;20040;-49
2023/02/03 02:08:03;;;;;;;8.82;6.95;;;4.10;99.90;;;;;;5033003;28;20030;-50
2023/02/03 02:10:49;;;;;;;11.63;7.53;;;4.20;99.90;;;;;;5032922;28;20135;-49
2023/02/03 02:13:36;;;;;;;9.45;8.02;;;4.20;99.90;;;;;;5034403;28;20398;-49
2023/02/03 02:16:52;;;;;;;11.65;8.60;;;4.20;99.90;;;;;;5014075;28;20084;-48
2023/02/03 02:19:54;;;;;;;11.75;8.93;;;4.30;99.90;;;;;;5019624;28;20022;-51
2023/02/03 02:23:05;;;;;;;13.02;10.05;;;4.40;99.90;;;;;;5033176;28;20032;-49
2023/02/03 02:26:30;;;;;;;13.82;10.70;;;4.50;99.90;;;;;;5025860;28;20034;-53
2023/02/03 02:29:25;;;;;;;13.88;11.55;;;4.50;99.90;;;;;;5019713;28;20025;-47
2023/02/03 02:32:27;;;;;;;15.10;10.98;;;4.60;99.90;;;;;;5027529;28;20025;-51
2023/02/03 02:35:28;;;;;;;15.23;11.40;;;4.70;99.90;;;;;;5032049;28;20472;-52
2023/02/03 02:38:19;;;;;;;16.60;11.77;;;4.80;99.90;;;;;;5033754;28;20116;-47
2023/02/03 02:41:24;;;;;;;19.38;12.93;;;4.90;99.90;;;;;;5032889;28;20114;-49
2023/02/03 02:44:20;;;;;;;16.50;12.35;;;4.90;99.90;;;;;;5033416;28;20441;-47
2023/02/03 02:47:19;;;;;;;14.95;11.82;;;4.90;99.90;;;;;;5032973;28;20396;-47
2023/02/03 02:50:17;;;;;;;16.05;12.57;;;5.00;99.90;;;;;;5032731;28;20028;-51
2023/02/03 02:53:04;;;;;;;17.67;13.50;;;5.00;99.90;;;;;;5034152;28;20021;-49
2023/02/03 02:55:52;;;;;;;15.98;12.75;;;5.10;99.90;;;;;;5034089;28;20026;-51
2023/02/03 02:58:41;;;;;;;18.50;13.40;;;5.20;99.90;;;;;;5032402;28;20030;-51
2023/02/03 03:01:27;;;;;;;17.13;13.63;;;5.30;99.90;;;;;;5031230;28;20045;-50
2023/02/03 03:04:17;;;;;;;18.10;13.98;;;5.30;99.90;;;;;;5032310;28;20045;-47
2023/02/03 03:07:09;;;;;;;19.27;14.13;;;5.40;99.90;;;;;;5032309;28;20029;-51
2023/02/03 03:10:00;;;;;;;18.77;14.45;;;5.50;99.90;;;;;;5023142;28;20508;-50
2023/02/03 03:12:53;;;;;;;20.15;14.23;;;5.60;99.90;;;;;;5040127;28;20450;-51
2023/02/03 03:15:39;;;;;;;19.38;14.93;;;5.60;99.90;;;;;;5032871;28;20084;-49
2023/02/03 03:18:37;;;;;;;19.88;15.07;;;5.60;99.90;;;;;;5032372;28;20037;-50
2023/02/03 03:21:29;;;;;;;20.27;14.82;;;5.60;99.90;;;;;;5031985;28;20037;-52
2023/02/03 03:24:23;;;;;;;19.70;15.07;;;5.70;99.90;;;;;;5025614;28;20025;-50
2023/02/03 03:27:15;;;;;;;21.25;15.45;;;5.70;99.90;;;;;;5029130;28;20030;-50
2023/02/03 03:30:14;;;;;;;21.17;16.23;;;5.60;99.90;;;;;;5041520;28;20033;-50
2023/02/03 03:33:01;;;;;;;19.23;15.23;;;5.60;99.90;;;;;;4998868;28;20081;-48
2023/02/03 03:36:07;;;;;;;20.25;15.80;;;5.70;99.90;;;;;;5015785;28;20025;-47
2023/02/03 03:38:55;;;;;;;21.40;15.23;;;5.70;99.90;;;;;;5033294;28;20029;-48
2023/02/03 03:41:53;;;;;;;19.75;15.07;;;5.70;99.90;;;;;;5033449;28;20065;-51
2023/02/03 03:44:51;;;;;;;25.30;16.15;;;5.80;99.90;;;;;;5034470;28;20088;-47
2023/02/03 03:47:43;;;;;;;28.58;16.60;;;5.80;99.90;;;;;;5032484;28;20116;-48
2023/02/03 03:50:34;;;;;;;22.75;16.67;;;5.90;99.90;;;;;;5032057;28;20100;-47
2023/02/03 03:53:22;;;;;;;24.00;15.95;;;5.90;99.90;;;;;;5012522;28;20113;-51
2023/02/03 03:56:15;;;;;;;21.63;16.52;;;6.00;99.90;;;;;;5002386;28;20053;-52
2023/02/03 03:59:03;;;;;;;25.88;16.13;;;6.10;99.90;;;;;;5032107;28;20461;-52
2023/02/03 04:01:50;;;;;;;23.67;17.40;;;6.10;99.90;;;;;;5032469;28;20025;-56
2023/02/03 04:04:38;;;;;;;27.90;17.67;;;6.10;99.90;;;;;;5033051;28;20021;-59
2023/02/03 04:07:43;;;;;;;25.45;16.80;;;6.10;99.90;;;;;;5042407;28;20076;-53
2023/02/03 04:10:36;;;;;;;22.77;16.83;;;6.20;99.90;;;;;;5021771;28;20018;-49
2023/02/03 04:13:22;;;;;;;21.50;15.52;;;6.20;99.90;;;;;;5032427;28;20413;-49
2023/02/03 04:16:08;;;;;;;23.70;16.70;;;6.20;99.90;;;;;;5030987;28;20025;-48
2023/02/03 04:18:54;;;;;;;22.48;17.00;;;6.30;99.90;;;;;;5030863;28;20030;-48
2023/02/03 04:21:40;;;;;;;26.05;16.83;;;6.30;99.90;;;;;;5031343;28;20045;-49
2023/02/03 04:24:26;;;;;;;24.65;16.90;;;6.30;99.90;;;;;;5017173;28;20065;-50
2023/02/03 04:27:12;;;;;;;22.80;16.75;;;6.40;99.90;;;;;;5031733;28;20029;-47
2023/02/03 04:29:58;;;;;;;25.05;18.10;;;6.40;99.90;;;;;;5031639;28;20507;-47
2023/02/03 04:32:45;;;;;;;27.35;17.77;;;6.40;99.90;;;;;;5031681;28;20516;-52
2023/02/03 04:35:31;;;;;;;22.92;17.15;;;6.40;99.90;;;;;;5030167;28;20033;-50
2023/02/03 04:38:17;;;;;;;25.25;16.50;;;6.50;99.90;;;;;;5031126;28;20039;-49
2023/02/03 04:41:03;;;;;;;25.63;17.30;;;6.40;99.90;;;;;;5030195;28;20051;-49
2023/02/03 04:43:49;;;;;;;25.25;17.33;;;6.50;99.90;;;;;;5031172;28;20025;-48
2023/02/03 04:46:35;;;;;;;28.35;18.17;;;6.50;99.90;;;;;;5030509;28;20037;-48
2023/02/03 04:49:21;;;;;;;27.42;18.02;;;6.60;99.90;;;;;;5030697;28;20033;-47
2023/02/03 04:52:07;;;;;;;26.15;17.70;;;6.60;99.90;;;;;;5030969;28;20369;-48
2023/02/03 04:54:53;;;;;;;24.65;16.45;;;6.60;99.90;;;;;;5030679;28;20018;-48
2023/02/03 04:57:39;;;;;;;24.30;17.23;;;6.70;99.90;;;;;;5029847;28;20386;-48
2023/02/03 05:00:26;;;;;;;25.70;17.23;;;6.70;99.90;;;;;;5030665;28;20033;-49
2023/02/03 05:03:12;;;;;;;23.20;17.25;;;6.70;99.90;;;;;;5022861;28;20621;-47
2023/02/03 05:05:58;;;;;;;23.45;17.23;;;6.70;99.90;;;;;;5028320;28;20075;-47
2023/02/03 05:08:44;;;;;;;22.13;16.52;;;6.70;99.90;;;;;;5039066;28;20112;-53
2023/02/03 05:11:30;;;;;;;21.08;16.67;;;6.70;99.90;;;;;;5031398;28;20030;-48
2023/02/03 05:14:16;;;;;;;26.83;17.40;;;6.70;99.90;;;;;;5032323;28;20028;-51
2023/02/03 05:17:02;;;;;;;23.08;17.20;;;6.70;99.90;;;;;;5029739;28;20108;-52
2023/02/03 05:19:48;;;;;;;23.35;16.33;;;6.80;99.90;;;;;;5031148;28;20025;-48
2023/02/03 05:22:34;;;;;;;22.52;16.80;;;6.90;99.90;;;;;;5032279;28;20402;-48
2023/02/03 05:25:20;;;;;;;22.77;16.58;;;6.80;99.90;;;;;;5030456;28;20108;-54
2023/02/03 05:28:06;;;;;;;19.70;15.05;;;6.80;99.90;;;;;;5030377;28;20041;-51
2023/02/03 05:30:52;;;;;;;23.15;15.35;;;6.90;99.90;;;;;;5020913;28;20133;-52
2023/02/03 05:33:38;;;;;;;19.45;14.18;;;6.90;99.90;;;;;;5009754;28;20025;-52
2023/02/03 05:36:24;;;;;;;22.10;15.35;;;7.00;99.90;;;;;;5033687;28;20030;-54
2023/02/03 05:39:10;;;;;;;23.08;15.45;;;7.00;99.90;;;;;;5034659;28;20029;-54
2023/02/03 05:41:56;;;;;;;18.02;14.35;;;7.00;99.90;;;;;;5033578;28;20056;-51
2023/02/03 05:44:41;;;;;;;19.35;14.30;;;6.90;99.90;;;;;;5034457;28;20038;-50
2023/02/03 05:47:27;;;;;;;18.98;14.65;;;7.00;99.90;;;;;;5033618;28;20041;-52
2023/02/03 05:50:13;;;;;;;18.20;14.10;;;6.90;99.90;;;;;;5014680;28;20549;-54
2023/02/03 05:53:00;;;;;;;19.13;14.32;;;6.90;99.90;;;;;;5016683;28;20028;-51
2023/02/03 05:55:46;;;;;;;21.10;14.38;;;7.00;99.90;;;;;;5034181;28;20026;-53
2023/02/03 05:58:32;;;;;;;19.42;13.80;;;7.00;99.90;;;;;;5034797;28;20032;-56
2023/02/03 06:01:18;;;;;;;17.63;13.43;;;6.90;99.90;;;;;;5033903;28;20676;-54
2023/02/03 06:04:05;;;;;;;20.23;14.52;;;7.00;99.90;;;;;;5033570;28;20046;-51
2023/02/03 06:06:51;;;;;;;18.52;13.57;;;7.00;99.90;;;;;;5033898;28;20029;-54
2023/02/03 06:09:37;;;;;;;18.42;13.23;;;7.00;99.90;;;;;;5033885;28;20029;-52
2023/02/03 06:12:23;;;;;;;16.92;13.40;;;7.10;99.90;;;;;;5034627;28;20396;-51
2023/02/03 06:15:09;;;;;;;15.32;12.25;;;7.10;99.90;;;;;;5033088;28;20065;-53
2023/02/03 06:17:55;;;;;;;16.77;13.10;;;7.10;99.90;;;;;;5033335;28;20109;-52
2023/02/03 06:20:41;;;;;;;19.02;12.68;;;7.10;99.90;;;;;;5014629;28;20029;-50
2023/02/03 06:23:27;;;;;;;15.05;12.70;;;7.20;99.90;;;;;;5016068;28;20141;-51
2023/02/03 06:26:13;;;;;;;16.23;12.07;;;7.20;99.90;;;;;;5030734;28;20026;-53
2023/02/03 06:28:59;;;;;;;17.02;13.55;;;7.10;99.90;;;;;;5031305;28;20033;-55
2023/02/03 06:31:45;;;;;;;15.25;11.80;;;7.20;99.90;;;;;;5038449;28;20022;-51
2023/02/03 06:34:32;;;;;;;14.63;11.88;;;7.20;99.90;;;;;;5025835;28;20092;-55
2023/02/03 06:37:17;;;;;;;15.60;12.02;;;7.20;99.90;;;;;;5034540;28;20080;-54
2023/02/03 06:40:05;;;;;;;15.63;12.13;;;7.20;99.90;;;;;;5019163;28;20121;-52
2023/02/03 06:42:51;;;;;;;15.25;12.48;;;7.30;99.90;;;;;;5036016;28;20047;-51
2023/02/03 06:45:37;;;;;;;14.55;11.25;;;7.30;99.90;;;;;;5023753;28;20030;-51
2023/02/03 06:48:27;;;;;;;13.25;11.32;;;7.30;99.90;;;;;;5037260;28;20025;-51
2023/02/03 06:51:13;;;;;;;16.25;11.48;;;7.40;99.90;;;;;;5019960;28;20022;-50
2023/02/03 06:53:58;;;;;;;17.30;12.75;;;7.40;99.90;;;;;;5033050;28;20104;-51
2023/02/03 06:56:44;;;;;;;15.95;11.80;;;7.40;99.90;;;;;;5031944;28;20033;-51
2023/02/03 06:59:31;;;;;;;18.95;12.48;;;7.40;99.90;;;;;;5032242;28;20111;-54
2023/02/03 07:02:17;;;;;;;16.17;11.93;;;7.50;99.90;;;;;;5033030;28;20045;-53
2023/02/03 07:05:03;;;;;;;17.10;11.88;;;7.50;99.90;;;;;;5032833;28;20534;-53
2023/02/03 07:07:49;;;;;;;14.77;11.10;;;7.40;99.90;;;;;;5018643;28;20044;-54
2023/02/03 07:10:35;;;;;;;16.98;12.15;;;7.50;99.90;;;;;;5013676;28;20024;-50
2023/02/03 07:13:21;;;;;;;13.40;11.50;;;7.50;99.90;;;;;;5028441;28;20030;-50
2023/02/03 07:16:07;;;;;;;15.70;11.13;;;7.40;99.90;;;;;;5031610;28;20021;-53
2023/02/03 07:18:53;;;;;;;15.70;11.18;;;7.50;99.90;;;;;;5031564;28;20116;-52
2023/02/03 07:21:39;;;;;;;17.63;12.38;;;7.50;99.90;;;;;;5032074;28;20030;-52
2023/02/03 07:24:25;;;;;;;14.18;11.52;;;7.50;99.90;;;;;;5033341;28;20121;-49
2023/02/03 07:27:11;;;;;;;15.88;11.70;;;7.50;99.90;;;;;;5033790;28;20040;-51
2023/02/03 07:29:57;;;;;;;16.08;11.68;;;7.40;99.90;;;;;;5012305;28;20041;-51
2023/02/03 07:32:48;;;;;;;15.23;11.35;;;7.40;99.90;;;;;;5037096;28;20037;-53
2023/02/03 07:35:34;;;;;;;15.27;11.18;;;7.50;99.90;;;;;;5036708;28;20430;-48
2023/02/03 07:38:20;;;;;;;16.30;11.40;;;7.60;99.90;;;;;;5015003;28;20030;-51
2023/02/03 07:41:06;;;;;;;12.85;10.30;;;7.60;99.90;;;;;;5030308;28;20117;-50
2023/02/03 07:43:52;;;;;;;12.45;9.98;;;7.70;99.90;;;;;;5030225;28;20072;-49
2023/02/03 07:46:43;;;;;;;16.27;10.65;;;7.80;99.90;;;;;;5027329;28;20022;-52
2023/02/03 07:49:29;;;;;;;12.43;9.70;;;7.90;99.90;;;;;;5029055;28;20085;-50
2023/02/03 07:52:15;;;;;;;13.88;10.63;;;7.80;99.90;;;;;;5015957;28;20026;-55
2023/02/03 07:55:01;;;;;;;13.85;10.23;;;7.90;99.90;;;;;;5030446;28;20041;-52
2023/02/03 07:57:47;;;;;;;12.95;10.88;;;8.00;99.90;;;;;;5028127;28;20045;-54
2023/02/03 08:00:33;;;;;;;16.90;10.75;;;7.90;99.90;;;;;;5029405;28;20044;-55
2023/02/03 08:03:19;;;;;;;13.60;10.73;;;7.90;99.90;;;;;;5029181;28;20022;-57
2023/02/03 08:06:06;;;;;;;15.40;10.00;;;8.00;99.90;;;;;;5020673;28;20409;-55
2023/02/03 08:08:52;;;;;;;12.75;10.05;;;8.00;99.90;;;;;;5014052;28;20076;-53
2023/02/03 08:11:38;;;;;;;13.15;10.38;;;8.00;99.90;;;;;;5023946;28;20109;-55
2023/02/03 08:14:24;;;;;;;14.23;10.32;;;8.10;99.90;;;;;;5017050;28;20044;-56
2023/02/03 08:17:10;;;;;;;14.45;10.10;;;8.10;99.90;;;;;;5030480;28;20167;-56
2023/02/03 08:19:56;;;;;;;13.43;10.15;;;8.20;99.90;;;;;;5047679;28;20028;-52
2023/02/03 08:22:42;;;;;;;17.42;10.07;;;8.20;99.90;;;;;;4997019;28;20038;-55
2023/02/03 08:25:29;;;;;;;13.05;9.73;;;8.20;99.90;;;;;;5013128;28;20018;-55
2023/02/03 08:28:15;;;;;;;12.75;9.50;;;8.30;99.90;;;;;;5030390;28;20029;-53
2023/02/03 08:31:01;;;;;;;11.57;9.45;;;8.30;99.90;;;;;;5031005;28;20095;-56
2023/02/03 08:33:46;;;;;;;13.95;9.73;;;8.30;99.90;;;;;;5031187;28;20029;-54
2023/02/03 08:36:32;;;;;;;14.90;8.63;;;8.30;99.90;;;;;;5031280;28;20489;-54
2023/02/03 08:39:18;;;;;;;10.57;8.27;;;8.30;99.90;;;;;;5029140;28;20029;-55
2023/02/03 08:42:05;;;;;;;9.90;8.25;;;8.30;99.90;;;;;;5032676;28;20516;-53
2023/02/03 08:44:51;;;;;;;9.65;7.47;;;8.40;99.90;;;;;;5027065;28;20037;-55
2023/02/03 08:47:38;;;;;;;13.23;8.68;;;8.30;99.90;;;;;;5032703;28;20034;-57
2023/02/03 08:50:24;;;;;;;13.05;8.20;;;8.40;99.90;;;;;;5049664;28;20026;-53
2023/02/03 08:53:10;;;;;;;13.93;8.65;;;8.40;99.90;;;;;;5047396;28;20057;-54
2023/02/03 08:55:56;;;;;;;10.70;7.50;;;8.40;99.90;;;;;;5048319;28;20025;-53
2023/02/03 08:58:42;;;;;;;10.23;7.20;;;8.40;99.90;;;;;;5036676;28;20390;-52
2023/02/03 09:01:28;;;;;;;10.85;7.07;;;8.40;99.90;;;;;;5031135;28;20490;-54
2023/02/03 09:04:23;;;;;;;7.85;6.63;;;8.50;99.90;;;;;;5030771;28;20042;-54
2023/02/03 09:07:10;;;;;;;12.63;7.20;;;8.50;99.90;;;;;;5029770;28;20117;-54
2023/02/03 09:09:56;;;;;;;13.00;7.28;;;8.40;99.90;;;;;;5014577;28;20105;-52
2023/02/03 09:12:41;;;;;;;7.25;6.47;;;8.40;99.90;;;;;;5028532;28;20105;-55
2023/02/03 09:15:27;;;;;;;10.80;7.40;;;8.50;99.90;;;;;;5030677;28;20017;-53
2023/02/03 09:18:13;;;;;;;9.77;7.07;;;8.40;99.90;;;;;;5029251;28;20033;-55
2023/02/03 09:21:01;;;;;;;8.40;6.97;;;8.50;99.90;;;;;;5029630;28;20041;-52
2023/02/03 09:23:47;;;;;;;10.82;7.10;;;8.50;99.90;;;;;;5020239;28;20032;-54
2023/02/03 09:26:33;;;;;;;7.85;6.18;;;8.50;99.90;;;;;;5030157;28;20029;-55
2023/02/03 09:29:19;;;;;;;10.68;6.40;;;8.60;99.90;;;;;;4996404;28;20065;-56
2023/02/03 09:32:07;;;;;;;9.07;6.43;;;8.60;99.90;;;;;;5016328;28;20032;-53
2023/02/03 09:34:53;;;;;;;10.93;6.40;;;8.60;99.90;;;;;;5029537;28;20032;-55
2023/02/03 09:37:39;;;;;;;6.97;6.10;;;8.70;99.90;;;;;;5028815;28;20029;-56
2023/02/03 09:40:31;;;;;;;10.07;5.85;;;8.60;99.90;;;;;;5030040;28;20017;-56
2023/02/03 09:43:37;;;;;;;7.32;5.68;;;8.70;99.90;;;;;;5031143;28;20048;-56
2023/02/03 09:46:37;;;;;;;6.38;5.78;;;8.80;99.90;;;;;;5029459;28;20053;-55
2023/02/03 09:49:25;;;;;;;6.22;5.32;;;8.80;99.90;;;;;;5028704;28;20030;-56
2023/02/03 09:52:25;;;;;;;7.25;5.15;;;8.80;99.90;;;;;;5028359;28;20052;-55
2023/02/03 09:55:11;;;;;;;8.13;5.30;;;8.70;99.90;;;;;;5028383;28;20033;-54
2023/02/03 09:58:04;;;;;;;7.25;5.38;;;8.80;99.90;;;;;;5029165;28;20036;-51
2023/02/03 10:00:52;;;;;;;5.53;4.95;;;8.70;99.90;;;;;;5016382;28;20059;-53
2023/02/03 10:03:52;;;;;;;5.38;4.88;;;8.70;99.90;;;;;;5029201;28;20038;-53
2023/02/03 10:06:44;;;;;;;5.60;4.97;;;8.60;99.90;;;;;;5029020;28;20061;-55
2023/02/03 10:09:46;;;;;;;4.93;4.28;;;8.60;99.90;;;;;;5029289;28;20041;-57
2023/02/03 10:13:04;;;;;;;4.60;4.20;;;8.70;99.90;;;;;;5030009;28;20025;-53
2023/02/03 10:16:10;;;;;;;6.60;4.38;;;8.60;99.90;;;;;;5029012;28;20025;-51
2023/02/03 10:19:00;;;;;;;5.15;4.00;;;8.60;99.90;;;;;;5031662;28;20037;-54
2023/02/03 10:21:54;;;;;;;5.95;4.25;;;8.70;99.90;;;;;;5019044;28;20091;-52
2023/02/03 10:24:46;;;;;;;7.53;3.65;;;8.70;99.90;;;;;;5032596;28;20029;-53
2023/02/03 10:27:33;;;;;;;5.78;3.60;;;8.70;99.90;;;;;;5018011;28;20047;-51
2023/02/03 10:30:22;;;;;;;4.72;3.78;;;8.70;99.90;;;;;;5028940;28;20017;-49
2023/02/03 10:33:16;;;;;;;5.03;4.22;;;8.70;99.90;;;;;;5032628;28;20378;-51
2023/02/03 10:36:27;;;;;;;5.72;3.70;;;8.80;99.90;;;;;;5032653;28;20030;-51
2023/02/03 10:39:39;;;;;;;5.00;4.20;;;8.80;99.90;;;;;;5028018;28;20060;-51
2023/02/03 10:43:46;;;;;;;7.18;4.32;;;8.80;99.90;;;;;;5024645;28;20014;-54
2023/02/03 10:45:37;;;;;;;5.93;4.63;;;8.70;99.90;;;;;;5013913;28;20282;-49
2023/02/03 10:48:24;;;;;;;6.15;4.00;;;8.80;99.90;;;;;;5029398;28;20072;-50
2023/02/03 10:51:17;;;;;;;4.57;4.05;;;8.80;99.90;;;;;;5032486;28;20026;-50
2023/02/03 10:54:03;;;;;;;7.07;4.45;;;8.80;99.90;;;;;;5023898;28;20025;-50
2023/02/03 10:56:49;;;;;;;6.38;4.72;;;8.90;99.90;;;;;;5032363;28;20123;-51
2023/02/03 10:59:46;;;;;;;6.15;4.30;;;8.80;99.90;;;;;;5033037;28;20037;-54
2023/02/03 11:02:32;;;;;;;5.30;4.13;;;8.80;99.90;;;;;;5037372;28;20021;-57
2023/02/03 11:05:19;;;;;;;4.60;3.90;;;8.80;99.90;;;;;;5038807;28;20033;-54
2023/02/03 11:08:14;;;;;;;4.80;4.40;;;8.90;99.90;;;;;;5035025;28;20021;-56
2023/02/03 11:11:30;;;;;;;4.47;4.07;;;8.80;99.90;;;;;;5035234;28;20025;-55
2023/02/03 11:14:16;;;;;;;5.18;4.10;;;8.90;99.90;;;;;;5033823;28;20710;-54
2023/02/03 11:17:08;;;;;;;5.28;4.28;;;8.70;99.90;;;;;;5034257;28;20077;-54
2023/02/03 11:20:11;;;;;;;4.53;3.90;;;8.60;99.90;;;;;;5036458;28;20034;-54
2023/02/03 11:22:57;;;;;;;6.28;4.47;;;8.60;99.90;;;;;;5034896;28;20056;-53
2023/02/03 11:25:43;;;;;;;4.78;4.25;;;8.50;99.90;;;;;;5009886;28;20071;-56
2023/02/03 11:28:29;;;;;;;4.50;4.10;;;8.50;99.90;;;;;;5032178;28;20113;-56
2023/02/03 11:31:26;;;;;;;5.30;4.38;;;8.60;99.90;;;;;;5031904;28;20030;-55
2023/02/03 11:34:20;;;;;;;4.45;4.05;;;8.60;99.90;;;;;;5034530;28;20029;-56
2023/02/03 11:37:28;;;;;;;5.32;4.72;;;8.60;99.90;;;;;;5032039;28;20029;-57
2023/02/03 11:40:14;;;;;;;4.88;3.90;;;8.60;99.90;;;;;;5019115;28;20034;-52
2023/02/03 11:43:15;;;;;;;3.70;3.40;;;8.60;99.90;;;;;;5033483;28;20029;-55
2023/02/03 11:46:03;;;;;;;3.22;2.80;;;8.50;99.90;;;;;;5011717;28;20096;-56
2023/02/03 11:49:18;;;;;;;2.90;2.10;;;8.50;99.90;;;;;;5019459;28;20124;-56
2023/02/03 11:52:38;;;;;;;2.20;2.03;;;8.70;99.90;;;;;;5028287;28;20049;-49
2023/02/03 11:55:44;;;;;;;2.42;1.83;;;8.80;99.90;;;;;;5035827;28;20033;-55
2023/02/03 11:58:30;;;;;;;3.80;2.00;;;8.90;99.90;;;;;;5041234;28;20022;-55
2023/02/03 12:01:57;;;;;;;2.35;1.88;;;8.90;99.90;;;;;;5032664;28;20049;-52
2023/02/03 12:05:02;;;;;;;1.58;1.48;;;8.90;99.90;;;;;;5006596;28;20044;-54
2023/02/03 12:08:07;;;;;;;2.25;1.90;;;8.90;99.90;;;;;;5016271;28;20022;-55
2023/02/03 12:11:14;;;;;;;3.93;2.07;;;9.00;99.90;;;;;;5030452;28;20029;-54
2023/02/03 12:14:16;;;;;;;2.00;1.75;;;9.10;99.90;;;;;;5030892;28;20651;-55
2023/02/03 12:17:22;;;;;;;9.02;2.00;;;9.10;99.90;;;;;;5010768;28;20026;-50
2023/02/03 12:20:39;;;;;;;1.80;1.70;;;9.10;99.90;;;;;;5013083;28;20028;-56
2023/02/03 12:23:34;;;;;;;1.85;1.65;;;9.30;99.90;;;;;;4991531;28;20048;-58
2023/02/03 12:26:31;;;;;;;1.60;1.50;;;9.20;99.90;;;;;;5031646;28;20468;-58
2023/02/03 12:29:27;;;;;;;3.05;1.52;;;9.20;99.90;;;;;;5030763;28;20041;-56
2023/02/03 12:32:35;;;;;;;1.60;1.25;;;9.30;99.90;;;;;;5032283;28;20025;-57
2023/02/03 12:35:23;;;;;;;1.45;1.35;;;9.30;99.90;;;;;;5028049;28;20030;-51
2023/02/03 12:38:17;;;;;;;2.50;1.30;;;9.30;99.90;;;;;;5035315;28;20547;-53
2023/02/03 12:41:16;;;;;;;2.53;1.60;;;9.30;99.90;;;;;;5029545;28;20091;-54
2023/02/03 12:44:22;;;;;;;6.43;2.40;;;9.40;99.90;;;;;;5030886;28;20026;-57
2023/02/03 12:48:00;;;;;;;8.48;2.92;;;9.40;99.90;;;;;;5012099;28;20510;-58
2023/02/03 12:51:04;;;;;;;7.20;2.88;;;9.40;99.90;;;;;;4917919;29;20036;-58
2023/02/03 12:53:56;;;;;;;10.50;2.67;;;9.50;99.90;;;;;;4916881;28;20036;-56
2023/02/03 12:56:46;;;;;;;9.02;3.08;;;9.50;99.90;;;;;;5020876;28;20028;-56
2023/02/03 12:59:34;;;;;;;13.35;3.83;;;9.50;99.90;;;;;;5033947;28;20017;-55
2023/02/03 13:02:28;;;;;;;7.63;2.92;;;9.50;99.90;;;;;;5026485;28;20091;-56
2023/02/03 13:05:32;;;;;;;9.93;3.70;;;9.40;99.90;;;;;;5017012;28;20076;-52
2023/02/03 13:08:51;;;;;;;13.02;3.28;;;9.40;99.90;;;;;;5024313;28;20030;-59
2023/02/03 13:11:42;;;;;;;12.93;4.20;;;9.40;99.90;;;;;;5012651;28;20037;-58
2023/02/03 13:14:47;;;;;;;11.02;3.30;;;9.40;99.90;;;;;;5029720;28;20056;-57
2023/02/03 13:17:56;;;;;;;10.85;3.80;;;9.40;99.90;;;;;;5011666;28;20025;-56
2023/02/03 13:20:44;;;;;;;13.68;3.85;;;9.30;99.90;;;;;;5014781;28;20038;-58
2023/02/03 13:23:30;;;;;;;13.45;4.32;;;9.30;99.90;;;;;;5013196;28;20061;-58
2023/02/03 13:26:31;;;;;;;8.82;3.45;;;9.30;99.90;;;;;;5027474;28;20061;-59
2023/02/03 13:29:28;;;;;;;11.52;3.72;;;9.30;99.90;;;;;;5034805;28;20029;-58
2023/02/03 13:32:23;;;;;;;9.63;3.45;;;9.40;99.90;;;;;;5040014;28;20033;-55
2023/02/03 13:35:31;;;;;;;15.98;4.30;;;9.40;99.90;;;;;;5035865;28;20076;-53
2023/02/03 13:38:52;;;;;;;10.73;4.32;;;9.30;99.90;;;;;;5007838;28;20034;-57
2023/02/03 13:41:48;;;;;;;13.75;3.97;;;9.40;99.90;;;;;;4969674;28;20023;-58
2023/02/03 13:44:38;;;;;;;15.30;4.43;;;9.40;99.90;;;;;;5024612;28;20029;-56
2023/02/03 13:47:28;;;;;;;8.95;3.95;;;9.40;99.90;;;;;;5017090;28;20108;-59
2023/02/03 13:50:33;;;;;;;17.65;4.85;;;9.30;99.90;;;;;;5020299;28;20038;-57
2023/02/03 13:53:24;;;;;;;16.17;4.80;;;9.30;99.90;;;;;;5034956;28;20026;-52
2023/02/03 13:56:19;;;;;;;11.80;3.58;;;9.30;99.90;;;;;;5035059;28;20030;-55
2023/02/03 13:59:14;;;;;;;14.27;4.38;;;9.30;99.90;;;;;;5033582;28;20029;-54
2023/02/03 14:02:18;;;;;;;15.15;4.78;;;9.40;99.90;;;;;;5029429;28;20045;-52
2023/02/03 14:05:28;;;;;;;15.55;5.38;;;9.30;99.90;;;;;;5020160;28;20444;-54
2023/02/03 14:08:26;;;;;;;14.27;3.97;;;9.30;99.90;;;;;;5014943;28;20030;-54
2023/02/03 14:11:34;;;;;;;15.10;3.80;;;9.20;99.90;;;;;;5034601;28;20639;-54
2023/02/03 14:14:20;;;;;;;16.67;4.18;;;9.10;99.90;;;;;;5033882;28;20022;-56
2023/02/03 14:17:31;;;;;;;16.83;5.28;;;9.10;99.90;;;;;;5031212;28;20026;-58
2023/02/03 14:20:26;;;;;;;19.10;4.18;;;9.00;99.90;;;;;;5013554;28;20032;-54
2023/02/03 14:23:20;;;;;;;12.23;4.10;;;9.00;99.90;;;;;;5015626;28;20026;-52
2023/02/03 14:26:16;;;;;;;10.30;4.13;;;9.00;99.90;;;;;;5016430;28;20061;-57
2023/02/03 14:29:02;;;;;;;14.73;4.22;;;9.10;99.90;;;;;;5046878;28;20119;-56
2023/02/03 14:32:01;;;;;;;12.63;4.43;;;9.20;99.90;;;;;;5039729;28;20052;-53
2023/02/03 14:34:49;;;;;;;16.67;4.47;;;9.20;99.90;;;;;;5031613;28;20633;-54
2023/02/03 14:37:35;;;;;;;17.65;4.35;;;9.20;99.90;;;;;;5035213;28;20048;-52
2023/02/03 14:40:37;;;;;;;22.75;4.43;;;9.20;99.90;;;;;;5037842;28;20040;-57
2023/02/03 14:43:49;;;;;;;13.27;4.43;;;9.20;99.90;;;;;;5036348;28;20017;-54
2023/02/03 14:46:51;;;;;;;14.10;5.05;;;9.30;99.90;;;;;;5015917;28;20044;-56
2023/02/03 14:50:17;;;;;;;16.88;5.38;;;9.20;99.90;;;;;;5023881;28;20366;-52